Warehouse Point, Connecticut
Current Conditions -  °F | °C
As of 5:51 AM on Monday 22 Dec 2014 (Local Time) from KBDL Reporting Station
Overcast Overcast  
Wind Chill: 27°   Ceiling: 1600
Heat Index: 34°   Visibility: 10mi
Dew Point: 30°   Wind: 8mph
Humidity: 85%   Direction: 360°N
Pressure: 30.34"   Gusts: NA
Location:  41.9062°N, 72.5958°W
Report Text: KBDL 221051Z 36007KT 10SM BKN016 OVC020 01/M01 A3034 RMK AO2 SLP277 T00111011 $
Loading
Personal Weather Stations






























Interactive Weather Map New forecast layout! Learn more

10-Day Weather Forecast

Advertisements
Track Severe Weather on mobile